sensor_id;sensor_type;location;lat;lon;timestamp;pressure;altitude;pressure_sealevel;temperature;humidity
49835;BME280;35729;52.090;13.162;2023-04-08T00:01:57;101496.50;;;4.28;99.76
49835;BME280;35729;52.090;13.162;2023-04-08T00:04:26;101500.81;;;4.27;100.00
49835;BME280;35729;52.090;13.162;2023-04-08T00:06:56;101500.78;;;4.26;100.00
49835;BME280;35729;52.090;13.162;2023-04-08T00:09:24;101498.19;;;4.26;100.00
49835;BME280;35729;52.090;13.162;2023-04-08T00:11:55;101495.56;;;4.24;100.00
49835;BME280;35729;52.090;13.162;2023-04-08T00:14:24;101492.13;;;4.23;100.00
49835;BME280;35729;52.090;13.162;2023-04-08T00:16:52;101491.22;;;4.23;100.00
49835;BME280;35729;52.090;13.162;2023-04-08T00:19:21;101488.63;;;4.23;100.00
49835;BME280;35729;52.090;13.162;2023-04-08T00:21:49;101491.22;;;4.21;100.00
49835;BME280;35729;52.090;13.162;2023-04-08T00:24:18;101480.84;;;4.23;100.00
49835;BME280;35729;52.090;13.162;2023-04-08T00:26:46;101492.06;;;4.22;100.00
49835;BME280;35729;52.090;13.162;2023-04-08T00:29:17;101489.47;;;4.22;100.00
49835;BME280;35729;52.090;13.162;2023-04-08T00:31:46;101491.22;;;4.23;100.00
49835;BME280;35729;52.090;13.162;2023-04-08T00:34:14;101486.91;;;4.23;100.00
49835;BME280;35729;52.090;13.162;2023-04-08T00:36:44;101480.84;;;4.23;100.00
49835;BME280;35729;52.090;13.162;2023-04-08T00:39:12;101483.50;;;4.26;100.00
49835;BME280;35729;52.090;13.162;2023-04-08T00:41:41;101479.19;;;4.28;99.64
49835;BME280;35729;52.090;13.162;2023-04-08T00:44:10;101480.91;;;4.26;100.00
49835;BME280;35729;52.090;13.162;2023-04-08T00:46:47;101485.22;;;4.27;100.00
49835;BME280;35729;52.090;13.162;2023-04-08T00:49:16;101482.63;;;4.27;100.00
49835;BME280;35729;52.090;13.162;2023-04-08T00:51:44;101485.19;;;4.26;100.00
49835;BME280;35729;52.090;13.162;2023-04-08T00:54:12;101479.16;;;4.25;100.00
49835;BME280;35729;52.090;13.162;2023-04-08T00:56:42;101479.16;;;4.25;100.00
49835;BME280;35729;52.090;13.162;2023-04-08T00:59:11;101480.00;;;4.26;100.00
49835;BME280;35729;52.090;13.162;2023-04-08T01:01:42;101481.75;;;4.25;100.00
49835;BME280;35729;52.090;13.162;2023-04-08T01:04:21;101486.91;;;4.23;100.00
49835;BME280;35729;52.090;13.162;2023-04-08T01:06:58;101484.34;;;4.25;100.00
49835;BME280;35729;52.090;13.162;2023-04-08T01:09:31;101475.63;;;4.21;100.00
49835;BME280;35729;52.090;13.162;2023-04-08T01:12:05;101482.59;;;4.24;100.00
49835;BME280;35729;52.090;13.162;2023-04-08T01:14:39;101483.50;;;4.26;100.00
49835;BME280;35729;52.090;13.162;2023-04-08T01:17:10;101489.56;;;4.27;100.00
49835;BME280;35729;52.090;13.162;2023-04-08T01:19:41;101484.38;;;4.28;100.00
49835;BME280;35729;52.090;13.162;2023-04-08T01:22:18;101487.88;;;4.30;100.00
49835;BME280;35729;52.090;13.162;2023-04-08T01:24:56;101493.09;;;4.30;100.00
49835;BME280;35729;52.090;13.162;2023-04-08T01:27:30;101487.91;;;4.32;100.00
49835;BME280;35729;52.090;13.162;2023-04-08T01:30:00;101487.06;;;4.33;100.00
49835;BME280;35729;52.090;13.162;2023-04-08T01:32:30;101486.19;;;4.32;100.00
49835;BME280;35729;52.090;13.162;2023-04-08T01:35:00;101491.41;;;4.34;100.00
49835;BME280;35729;52.090;13.162;2023-04-08T01:37:30;101490.50;;;4.32;100.00
49835;BME280;35729;52.090;13.162;2023-04-08T01:40:00;101486.19;;;4.32;100.00
49835;BME280;35729;52.090;13.162;2023-04-08T01:42:32;101490.50;;;4.32;100.00
49835;BME280;35729;52.090;13.162;2023-04-08T01:45:03;101488.78;;;4.32;100.00
49835;BME280;35729;52.090;13.162;2023-04-08T01:47:33;101489.66;;;4.34;100.00
49835;BME280;35729;52.090;13.162;2023-04-08T01:50:04;101492.28;;;4.36;100.00
49835;BME280;35729;52.090;13.162;2023-04-08T01:52:34;101488.84;;;4.37;100.00
49835;BME280;35729;52.090;13.162;2023-04-08T01:55:05;101494.94;;;4.37;100.00
49835;BME280;35729;52.090;13.162;2023-04-08T01:57:37;101497.56;;;4.39;100.00
49835;BME280;35729;52.090;13.162;2023-04-08T02:00:09;101495.78;;;4.38;100.00
49835;BME280;35729;52.090;13.162;2023-04-08T02:02:40;101505.34;;;4.39;100.00
49835;BME280;35729;52.090;13.162;2023-04-08T02:05:09;101506.22;;;4.39;100.00
49835;BME280;35729;52.090;13.162;2023-04-08T02:07:38;101505.38;;;4.40;100.00
49835;BME280;35729;52.090;13.162;2023-04-08T02:10:07;101504.50;;;4.40;100.00
49835;BME280;35729;52.090;13.162;2023-04-08T02:12:38;101507.97;;;4.40;100.00
49835;BME280;35729;52.090;13.162;2023-04-08T02:15:08;101500.16;;;4.40;100.00
49835;BME280;35729;52.090;13.162;2023-04-08T02:17:42;101507.97;;;4.42;100.00
49835;BME280;35729;52.090;13.162;2023-04-08T02:20:15;101508.88;;;4.43;100.00
49835;BME280;35729;52.090;13.162;2023-04-08T02:22:48;101509.72;;;4.42;100.00
49835;BME280;35729;52.090;13.162;2023-04-08T02:25:21;101512.34;;;4.43;100.00
49835;BME280;35729;52.090;13.162;2023-04-08T02:27:54;101501.94;;;4.43;100.00
49835;BME280;35729;52.090;13.162;2023-04-08T02:30:24;101508.88;;;4.43;100.00
49835;BME280;35729;52.090;13.162;2023-04-08T02:32:55;101502.78;;;4.42;100.00
49835;BME280;35729;52.090;13.162;2023-04-08T02:35:26;101506.28;;;4.44;100.00
49835;BME280;35729;52.090;13.162;2023-04-08T02:37:55;101505.44;;;4.44;100.00
49835;BME280;35729;52.090;13.162;2023-04-08T02:40:25;101510.63;;;4.44;100.00
49835;BME280;35729;52.090;13.162;2023-04-08T02:42:57;101510.63;;;4.44;100.00
49835;BME280;35729;52.090;13.162;2023-04-08T02:45:27;101518.41;;;4.44;100.00
49835;BME280;35729;52.090;13.162;2023-04-08T02:47:57;101515.81;;;4.44;100.00
49835;BME280;35729;52.090;13.162;2023-04-08T02:50:27;101513.19;;;4.42;100.00
49835;BME280;35729;52.090;13.162;2023-04-08T02:52:55;101514.91;;;4.42;100.00
49835;BME280;35729;52.090;13.162;2023-04-08T02:55:24;101513.16;;;4.40;100.00
49835;BME280;35729;52.090;13.162;2023-04-08T02:57:52;101514.91;;;4.40;100.00
49835;BME280;35729;52.090;13.162;2023-04-08T03:00:23;101520.97;;;4.42;100.00
49835;BME280;35729;52.090;13.162;2023-04-08T03:02:52;101521.78;;;4.39;100.00
49835;BME280;35729;52.090;13.162;2023-04-08T03:05:20;101529.59;;;4.39;100.00
49835;BME280;35729;52.090;13.162;2023-04-08T03:07:49;101526.16;;;4.40;100.00
49835;BME280;35729;52.090;13.162;2023-04-08T03:10:17;101539.13;;;4.40;100.00
49835;BME280;35729;52.090;13.162;2023-04-08T03:12:46;101538.28;;;4.42;100.00
49835;BME280;35729;52.090;13.162;2023-04-08T03:15:14;101540.06;;;4.43;100.00
49835;BME280;35729;52.090;13.162;2023-04-08T03:17:45;101535.72;;;4.43;100.00
49835;BME280;35729;52.090;13.162;2023-04-08T03:20:14;101536.63;;;4.44;100.00
49835;BME280;35729;52.090;13.162;2023-04-08T03:22:43;101540.94;;;4.45;100.00
49835;BME280;35729;52.090;13.162;2023-04-08T03:25:11;101543.53;;;4.45;100.00
49835;BME280;35729;52.090;13.162;2023-04-08T03:27:40;101541.81;;;4.45;100.00
49835;BME280;35729;52.090;13.162;2023-04-08T03:30:08;101533.13;;;4.45;100.00
49835;BME280;35729;52.090;13.162;2023-04-08T03:32:37;101544.44;;;4.45;100.00
49835;BME280;35729;52.090;13.162;2023-04-08T03:35:08;101540.06;;;4.44;100.00
49835;BME280;35729;52.090;13.162;2023-04-08T03:37:37;101547.88;;;4.44;100.00
49835;BME280;35729;52.090;13.162;2023-04-08T03:40:07;101546.13;;;4.45;100.00
49835;BME280;35729;52.090;13.162;2023-04-08T03:42:36;101553.94;;;4.45;100.00
49835;BME280;35729;52.090;13.162;2023-04-08T03:45:10;101553.09;;;4.47;100.00
49835;BME280;35729;52.090;13.162;2023-04-08T03:47:45;101551.41;;;4.48;100.00
49835;BME280;35729;52.090;13.162;2023-04-08T03:50:16;101560.06;;;4.50;100.00
49835;BME280;35729;52.090;13.162;2023-04-08T03:52:45;101558.38;;;4.52;100.00
49835;BME280;35729;52.090;13.162;2023-04-08T03:55:14;101557.53;;;4.53;100.00
49835;BME280;35729;52.090;13.162;2023-04-08T03:57:43;101551.50;;;4.55;100.00
49835;BME280;35729;52.090;13.162;2023-04-08T04:00:12;101560.16;;;4.56;100.00
49835;BME280;35729;52.090;13.162;2023-04-08T04:02:41;101564.53;;;4.59;100.00
49835;BME280;35729;52.090;13.162;2023-04-08T04:05:09;101563.69;;;4.60;100.00
49835;BME280;35729;52.090;13.162;2023-04-08T04:07:40;101568.91;;;4.60;100.00
49835;BME280;35729;52.090;13.162;2023-04-08T04:10:09;101572.34;;;4.59;100.00
49835;BME280;35729;52.090;13.162;2023-04-08T04:12:38;101572.41;;;4.62;100.00
49835;BME280;35729;52.090;13.162;2023-04-08T04:15:07;101580.22;;;4.62;100.00
49835;BME280;35729;52.090;13.162;2023-04-08T04:17:35;101584.50;;;4.61;100.00
49835;BME280;35729;52.090;13.162;2023-04-08T04:20:04;101586.28;;;4.62;100.00
49835;BME280;35729;52.090;13.162;2023-04-08T04:22:33;101585.41;;;4.63;100.00
49835;BME280;35729;52.090;13.162;2023-04-08T04:25:05;101586.34;;;4.65;100.00
49835;BME280;35729;52.090;13.162;2023-04-08T04:27:33;101582.00;;;4.66;100.00
49835;BME280;35729;52.090;13.162;2023-04-08T04:30:02;101595.00;;;4.67;100.00
49835;BME280;35729;52.090;13.162;2023-04-08T04:32:31;101592.47;;;4.69;100.00
49835;BME280;35729;52.090;13.162;2023-04-08T04:35:00;101589.88;;;4.69;100.00
49835;BME280;35729;52.090;13.162;2023-04-08T04:37:28;101589.88;;;4.69;100.00
49835;BME280;35729;52.090;13.162;2023-04-08T04:39:57;101598.53;;;4.69;100.00
49835;BME280;35729;52.090;13.162;2023-04-08T04:42:28;101599.38;;;4.70;100.00
49835;BME280;35729;52.090;13.162;2023-04-08T04:44:57;101595.94;;;4.71;100.00
49835;BME280;35729;52.090;13.162;2023-04-08T04:47:25;101599.38;;;4.70;100.00
49835;BME280;35729;52.090;13.162;2023-04-08T04:49:56;101612.44;;;4.71;100.00
49835;BME280;35729;52.090;13.162;2023-04-08T04:52:25;101605.47;;;4.70;100.00
49835;BME280;35729;52.090;13.162;2023-04-08T04:54:56;101608.06;;;4.70;100.00
49835;BME280;35729;52.090;13.162;2023-04-08T04:57:24;101615.88;;;4.70;100.00
49835;BME280;35729;52.090;13.162;2023-04-08T04:59:55;101605.47;;;4.70;100.00
49835;BME280;35729;52.090;13.162;2023-04-08T05:02:23;101607.22;;;4.71;100.00
49835;BME280;35729;52.090;13.162;2023-04-08T05:04:52;101618.50;;;4.73;100.00
49835;BME280;35729;52.090;13.162;2023-04-08T05:07:20;101617.66;;;4.73;100.00
49835;BME280;35729;52.090;13.162;2023-04-08T05:09:49;101615.91;;;4.73;100.00
49835;BME280;35729;52.090;13.162;2023-04-08T05:12:17;101615.06;;;4.75;100.00
49835;BME280;35729;52.090;13.162;2023-04-08T05:14:46;101616.81;;;4.76;100.00
49835;BME280;35729;52.090;13.162;2023-04-08T05:17:17;101621.19;;;4.77;100.00
49835;BME280;35729;52.090;13.162;2023-04-08T05:19:45;101629.84;;;4.77;100.00
49835;BME280;35729;52.090;13.162;2023-04-08T05:22:14;101635.88;;;4.76;100.00
49835;BME280;35729;52.090;13.162;2023-04-08T05:24:42;101640.25;;;4.77;100.00
49835;BME280;35729;52.090;13.162;2023-04-08T05:27:11;101649.78;;;4.77;100.00
49835;BME280;35729;52.090;13.162;2023-04-08T05:29:39;101640.25;;;4.77;100.00
49835;BME280;35729;52.090;13.162;2023-04-08T05:32:08;101640.25;;;4.79;100.00
49835;BME280;35729;52.090;13.162;2023-04-08T05:34:39;101648.09;;;4.80;100.00
49835;BME280;35729;52.090;13.162;2023-04-08T05:37:07;101646.41;;;4.84;100.00
49835;BME280;35729;52.090;13.162;2023-04-08T05:39:35;101649.00;;;4.84;100.00
49835;BME280;35729;52.090;13.162;2023-04-08T05:42:05;101652.50;;;4.84;100.00
49835;BME280;35729;52.090;13.162;2023-04-08T05:44:34;101651.69;;;4.87;100.00
49835;BME280;35729;52.090;13.162;2023-04-08T05:47:03;101648.22;;;4.88;100.00
49835;BME280;35729;52.090;13.162;2023-04-08T05:49:32;101655.16;;;4.89;100.00
49835;BME280;35729;52.090;13.162;2023-04-08T05:52:03;101649.09;;;4.88;100.00
49835;BME280;35729;52.090;13.162;2023-04-08T05:54:32;101655.16;;;4.89;100.00
49835;BME280;35729;52.090;13.162;2023-04-08T05:57:00;101648.25;;;4.89;100.00
49835;BME280;35729;52.090;13.162;2023-04-08T05:59:29;101654.38;;;4.92;100.00
49835;BME280;35729;52.090;13.162;2023-04-08T06:01:57;101659.59;;;4.93;100.00
49835;BME280;35729;52.090;13.162;2023-04-08T06:04:25;101668.25;;;4.95;100.00
49835;BME280;35729;52.090;13.162;2023-04-08T06:06:54;101675.22;;;4.96;100.00
49835;BME280;35729;52.090;13.162;2023-04-08T06:09:26;101676.97;;;4.97;100.00
49835;BME280;35729;52.090;13.162;2023-04-08T06:11:55;101673.56;;;5.00;100.00
49835;BME280;35729;52.090;13.162;2023-04-08T06:14:23;101682.25;;;5.02;100.00
49835;BME280;35729;52.090;13.162;2023-04-08T06:16:52;101684.88;;;5.03;100.00
49835;BME280;35729;52.090;13.162;2023-04-08T06:19:21;101688.41;;;5.07;100.00
49835;BME280;35729;52.090;13.162;2023-04-08T06:21:49;101692.78;;;5.10;100.00
49835;BME280;35729;52.090;13.162;2023-04-08T06:24:26;101696.34;;;5.15;100.00
49835;BME280;35729;52.090;13.162;2023-04-08T06:26:55;101698.97;;;5.18;100.00
49835;BME280;35729;52.090;13.162;2023-04-08T06:29:23;101704.25;;;5.21;100.00
49835;BME280;35729;52.090;13.162;2023-04-08T06:32:16;101700.84;;;5.27;100.00
49835;BME280;35729;52.090;13.162;2023-04-08T06:34:44;101701.78;;;5.30;100.00
49835;BME280;35729;52.090;13.162;2023-04-08T06:37:13;101703.53;;;5.33;100.00
49835;BME280;35729;52.090;13.162;2023-04-08T06:39:44;101700.09;;;5.34;100.00
49835;BME280;35729;52.090;13.162;2023-04-08T06:42:12;101703.59;;;5.36;100.00
49835;BME280;35729;52.090;13.162;2023-04-08T06:44:47;101708.84;;;5.37;100.00
49835;BME280;35729;52.090;13.162;2023-04-08T06:47:22;101712.38;;;5.41;100.00
49835;BME280;35729;52.090;13.162;2023-04-08T06:49:51;101711.53;;;5.44;100.00
49835;BME280;35729;52.090;13.162;2023-04-08T06:52:19;101715.91;;;5.48;100.00
49835;BME280;35729;52.090;13.162;2023-04-08T06:54:50;101711.63;;;5.50;100.00
49835;BME280;35729;52.090;13.162;2023-04-08T06:57:19;101716.84;;;5.53;100.00
49835;BME280;35729;52.090;13.162;2023-04-08T06:59:47;101711.72;;;5.58;100.00
49835;BME280;35729;52.090;13.162;2023-04-08T07:02:17;101719.59;;;5.62;100.00
49835;BME280;35729;52.090;13.162;2023-04-08T07:04:47;101726.63;;;5.68;100.00
49835;BME280;35729;52.090;13.162;2023-04-08T07:07:15;101727.56;;;5.73;100.00
49835;BME280;35729;52.090;13.162;2023-04-08T07:09:43;101731.09;;;5.77;100.00
49835;BME280;35729;52.090;13.162;2023-04-08T07:12:15;101735.50;;;5.82;100.00
49835;BME280;35729;52.090;13.162;2023-04-08T07:14:43;101737.31;;;5.88;100.00
49835;BME280;35729;52.090;13.162;2023-04-08T07:17:12;101743.47;;;5.93;100.00
49835;BME280;35729;52.090;13.162;2023-04-08T07:19:40;101747.03;;;5.98;100.00
49835;BME280;35729;52.090;13.162;2023-04-08T07:22:08;101748.81;;;6.02;100.00
49835;BME280;35729;52.090;13.162;2023-04-08T07:24:37;101748.91;;;6.07;100.00
49835;BME280;35729;52.090;13.162;2023-04-08T07:27:07;101758.50;;;6.11;100.00
49835;BME280;35729;52.090;13.162;2023-04-08T07:29:38;101759.41;;;6.15;100.00
49835;BME280;35729;52.090;13.162;2023-04-08T07:32:07;101760.34;;;6.18;100.00
49835;BME280;35729;52.090;13.162;2023-04-08T07:34:35;101761.25;;;6.22;100.00
49835;BME280;35729;52.090;13.162;2023-04-08T07:37:04;101769.09;;;6.27;100.00
49835;BME280;35729;52.090;13.162;2023-04-08T07:39:32;101762.19;;;6.29;100.00
49835;BME280;35729;52.090;13.162;2023-04-08T07:42:00;101762.19;;;6.30;100.00
49835;BME280;35729;52.090;13.162;2023-04-08T07:44:29;101763.97;;;6.33;100.00
49835;BME280;35729;52.090;13.162;2023-04-08T07:47:00;101762.28;;;6.36;100.00
49835;BME280;35729;52.090;13.162;2023-04-08T07:49:29;101770.16;;;6.41;100.00
49835;BME280;35729;52.090;13.162;2023-04-08T07:51:57;101762.41;;;6.47;100.00
49835;BME280;35729;52.090;13.162;2023-04-08T07:54:26;101764.25;;;6.55;100.00
49835;BME280;35729;52.090;13.162;2023-04-08T07:56:54;101764.34;;;6.64;100.00
49835;BME280;35729;52.090;13.162;2023-04-08T07:59:24;101767.88;;;6.72;100.00
49835;BME280;35729;52.090;13.162;2023-04-08T08:01:52;101768.00;;;6.83;100.00
49835;BME280;35729;52.090;13.162;2023-04-08T08:04:23;101767.25;;;6.93;100.00
49835;BME280;35729;52.090;13.162;2023-04-08T08:06:52;101766.47;;;7.02;99.88
49835;BME280;35729;52.090;13.162;2023-04-08T08:09:20;101770.88;;;7.11;99.54
49835;BME280;35729;52.090;13.162;2023-04-08T08:11:48;101774.47;;;7.19;99.27
49835;BME280;35729;52.090;13.162;2023-04-08T08:14:17;101777.97;;;7.24;98.87
49835;BME280;35729;52.090;13.162;2023-04-08T08:16:46;101780.66;;;7.30;98.69
49835;BME280;35729;52.090;13.162;2023-04-08T08:19:14;101778.94;;;7.36;97.94
49835;BME280;35729;52.090;13.162;2023-04-08T08:21:45;101778.09;;;7.40;97.96
49835;BME280;35729;52.090;13.162;2023-04-08T08:24:15;101780.78;;;7.47;97.68
49835;BME280;35729;52.090;13.162;2023-04-08T08:26:44;101784.28;;;7.51;96.83
49835;BME280;35729;52.090;13.162;2023-04-08T08:29:13;101786.03;;;7.54;96.47
49835;BME280;35729;52.090;13.162;2023-04-08T08:31:42;101786.94;;;7.57;96.70
49835;BME280;35729;52.090;13.162;2023-04-08T08:34:10;101790.41;;;7.59;96.23
49835;BME280;35729;52.090;13.162;2023-04-08T08:36:38;101785.22;;;7.62;95.91
49835;BME280;35729;52.090;13.162;2023-04-08T08:39:10;101789.59;;;7.65;95.98
49835;BME280;35729;52.090;13.162;2023-04-08T08:41:38;101787.03;;;7.70;95.79
49835;BME280;35729;52.090;13.162;2023-04-08T08:44:07;101793.16;;;7.75;95.49
49835;BME280;35729;52.090;13.162;2023-04-08T08:46:35;101801.06;;;7.84;95.12
49835;BME280;35729;52.090;13.162;2023-04-08T08:49:04;101790.66;;;7.93;94.89
49835;BME280;35729;52.090;13.162;2023-04-08T08:51:32;101793.28;;;7.98;93.47
49835;BME280;35729;52.090;13.162;2023-04-08T08:54:01;101801.19;;;8.03;93.52
49835;BME280;35729;52.090;13.162;2023-04-08T08:56:32;101801.19;;;8.07;91.59
49835;BME280;35729;52.090;13.162;2023-04-08T08:59:01;101807.31;;;8.12;91.84
49835;BME280;35729;52.090;13.162;2023-04-08T09:01:31;101807.34;;;8.17;91.41
49835;BME280;35729;52.090;13.162;2023-04-08T09:04:08;101808.28;;;8.25;91.10
49835;BME280;35729;52.090;13.162;2023-04-08T09:06:37;101812.66;;;8.34;91.21
49835;BME280;35729;52.090;13.162;2023-04-08T09:09:05;101821.41;;;8.42;90.83
49835;BME280;35729;52.090;13.162;2023-04-08T09:11:38;101819.75;;;8.54;90.09
49835;BME280;35729;52.090;13.162;2023-04-08T09:14:20;101816.28;;;8.61;88.61
49835;BME280;35729;52.090;13.162;2023-04-08T09:16:49;101832.88;;;8.68;88.87
49835;BME280;35729;52.090;13.162;2023-04-08T09:19:17;101827.69;;;8.71;87.78
49835;BME280;35729;52.090;13.162;2023-04-08T09:22:03;101829.41;;;8.70;87.03
49835;BME280;35729;52.090;13.162;2023-04-08T09:24:32;101835.53;;;8.74;87.76
49835;BME280;35729;52.090;13.162;2023-04-08T09:27:04;101832.03;;;8.75;87.35
49835;BME280;35729;52.090;13.162;2023-04-08T09:29:32;101835.53;;;8.80;87.21
49835;BME280;35729;52.090;13.162;2023-04-08T09:32:01;101837.28;;;8.83;86.32
49835;BME280;35729;52.090;13.162;2023-04-08T09:34:30;101842.53;;;8.84;85.50
49835;BME280;35729;52.090;13.162;2023-04-08T09:36:59;101839.91;;;8.83;85.27
49835;BME280;35729;52.090;13.162;2023-04-08T09:39:27;101851.25;;;8.83;84.75
49835;BME280;35729;52.090;13.162;2023-04-08T09:41:57;101860.84;;;8.83;85.17
49835;BME280;35729;52.090;13.162;2023-04-08T09:44:32;101856.50;;;8.85;84.72
49835;BME280;35729;52.090;13.162;2023-04-08T09:47:17;101860.88;;;8.87;85.31
49835;BME280;35729;52.090;13.162;2023-04-08T09:49:50;101854.78;;;8.91;85.26
49835;BME280;35729;52.090;13.162;2023-04-08T09:52:24;101859.13;;;8.92;84.92
49835;BME280;35729;52.090;13.162;2023-04-08T09:55:01;101855.66;;;8.93;84.72
49835;BME280;35729;52.090;13.162;2023-04-08T09:57:36;101860.00;;;8.91;84.54
49835;BME280;35729;52.090;13.162;2023-04-08T10:00:13;101862.59;;;8.88;83.53
49835;BME280;35729;52.090;13.162;2023-04-08T10:02:53;101856.50;;;8.88;84.34
49835;BME280;35729;52.090;13.162;2023-04-08T10:05:24;101861.75;;;8.92;84.24
49835;BME280;35729;52.090;13.162;2023-04-08T10:07:54;101851.28;;;8.95;83.67
49835;BME280;35729;52.090;13.162;2023-04-08T10:10:23;101855.66;;;8.98;83.83
49835;BME280;35729;52.090;13.162;2023-04-08T10:12:52;101855.66;;;9.03;83.67
49835;BME280;35729;52.090;13.162;2023-04-08T10:15:25;101862.66;;;9.05;82.60
49835;BME280;35729;52.090;13.162;2023-04-08T10:17:55;101865.28;;;9.05;82.38
49835;BME280;35729;52.090;13.162;2023-04-08T10:20:39;101861.75;;;8.97;81.79
49835;BME280;35729;52.090;13.162;2023-04-08T10:23:10;101866.97;;;8.91;82.52
49835;BME280;35729;52.090;13.162;2023-04-08T10:25:40;101869.59;;;8.89;82.65
49835;BME280;35729;52.090;13.162;2023-04-08T10:28:24;101866.09;;;8.90;81.92
49835;BME280;35729;52.090;13.162;2023-04-08T10:30:56;101864.38;;;8.95;82.34
49835;BME280;35729;52.090;13.162;2023-04-08T10:33:31;101867.88;;;9.01;82.01
49835;BME280;35729;52.090;13.162;2023-04-08T10:36:08;101873.13;;;9.07;82.05
49835;BME280;35729;52.090;13.162;2023-04-08T10:38:38;101868.78;;;9.15;82.07
49835;BME280;35729;52.090;13.162;2023-04-08T10:41:07;101869.69;;;9.22;81.37
49835;BME280;35729;52.090;13.162;2023-04-08T10:43:36;101871.44;;;9.24;81.68
49835;BME280;35729;52.090;13.162;2023-04-08T10:46:09;101869.69;;;9.29;81.46
49835;BME280;35729;52.090;13.162;2023-04-08T10:48:37;101873.19;;;9.32;81.33
49835;BME280;35729;52.090;13.162;2023-04-08T10:51:06;101867.09;;;9.34;81.16
49835;BME280;35729;52.090;13.162;2023-04-08T10:53:36;101867.06;;;9.39;80.52
49835;BME280;35729;52.090;13.162;2023-04-08T10:56:05;101873.19;;;9.41;80.03
49835;BME280;35729;52.090;13.162;2023-04-08T10:58:34;101865.34;;;9.39;79.45
49835;BME280;35729;52.090;13.162;2023-04-08T11:01:03;101867.94;;;9.41;79.81
49835;BME280;35729;52.090;13.162;2023-04-08T11:03:35;101867.97;;;9.49;79.97
49835;BME280;35729;52.090;13.162;2023-04-08T11:06:04;101865.34;;;9.61;79.77
49835;BME280;35729;52.090;13.162;2023-04-08T11:08:33;101858.38;;;9.69;77.06
49835;BME280;35729;52.090;13.162;2023-04-08T11:11:03;101865.34;;;9.75;78.13
49835;BME280;35729;52.090;13.162;2023-04-08T11:13:33;101854.84;;;9.83;77.97
49835;BME280;35729;52.090;13.162;2023-04-08T11:16:03;101863.59;;;9.91;77.68
49835;BME280;35729;52.090;13.162;2023-04-08T11:18:37;101857.47;;;10.03;77.72
49835;BME280;35729;52.090;13.162;2023-04-08T11:21:08;101874.06;;;10.08;75.49
49835;BME280;35729;52.090;13.162;2023-04-08T11:23:37;101869.66;;;10.13;76.67
49835;BME280;35729;52.090;13.162;2023-04-08T11:26:05;101859.16;;;10.19;75.92
49835;BME280;35729;52.090;13.162;2023-04-08T11:28:34;101866.16;;;10.26;75.32
49835;BME280;35729;52.090;13.162;2023-04-08T11:31:03;101871.38;;;10.33;74.99
49835;BME280;35729;52.090;13.162;2023-04-08T11:33:36;101871.41;;;10.40;74.18
49835;BME280;35729;52.090;13.162;2023-04-08T11:36:04;101861.75;;;10.50;74.12
49835;BME280;35729;52.090;13.162;2023-04-08T11:38:37;101864.34;;;10.59;73.55
49835;BME280;35729;52.090;13.162;2023-04-08T11:41:06;101862.56;;;10.69;73.67
49835;BME280;35729;52.090;13.162;2023-04-08T11:43:36;101874.75;;;10.78;72.44
49835;BME280;35729;52.090;13.162;2023-04-08T11:46:08;101864.25;;;10.81;71.13
49835;BME280;35729;52.090;13.162;2023-04-08T11:48:40;101864.25;;;10.84;71.68
49835;BME280;35729;52.090;13.162;2023-04-08T11:51:08;101867.72;;;10.89;71.71
49835;BME280;35729;52.090;13.162;2023-04-08T11:53:37;101861.53;;;10.97;71.76
49835;BME280;35729;52.090;13.162;2023-04-08T11:56:15;101858.88;;;11.06;70.94
49835;BME280;35729;52.090;13.162;2023-04-08T11:58:44;101861.44;;;11.14;70.60
49835;BME280;35729;52.090;13.162;2023-04-08T12:01:13;101856.13;;;11.23;70.31
49835;BME280;35729;52.090;13.162;2023-04-08T12:03:56;101863.09;;;11.29;66.83
49835;BME280;35729;52.090;13.162;2023-04-08T12:06:25;101859.53;;;11.37;69.29
49835;BME280;35729;52.090;13.162;2023-04-08T12:09:00;101859.47;;;11.44;66.86
49835;BME280;35729;52.090;13.162;2023-04-08T12:11:29;101866.44;;;11.49;66.60
49835;BME280;35729;52.090;13.162;2023-04-08T12:13:57;101863.78;;;11.55;68.16
49835;BME280;35729;52.090;13.162;2023-04-08T12:16:26;101868.09;;;11.63;67.73
49835;BME280;35729;52.090;13.162;2023-04-08T12:18:57;101861.94;;;11.65;66.54
49835;BME280;35729;52.090;13.162;2023-04-08T12:21:31;101865.41;;;11.69;66.72
49835;BME280;35729;52.090;13.162;2023-04-08T12:24:00;101858.38;;;11.74;66.29
49835;BME280;35729;52.090;13.162;2023-04-08T12:26:28;101862.63;;;11.86;66.23
49835;BME280;35729;52.090;13.162;2023-04-08T12:28:57;101861.69;;;11.99;64.86
49835;BME280;35729;52.090;13.162;2023-04-08T12:31:26;101864.22;;;12.09;64.54
49835;BME280;35729;52.090;13.162;2023-04-08T12:33:57;101864.09;;;12.19;62.23
49835;BME280;35729;52.090;13.162;2023-04-08T12:36:25;101856.09;;;12.29;63.90
49835;BME280;35729;52.090;13.162;2023-04-08T12:38:54;101857.78;;;12.37;64.09
49835;BME280;35729;52.090;13.162;2023-04-08T12:41:22;101862.91;;;12.50;63.58
49835;BME280;35729;52.090;13.162;2023-04-08T12:43:51;101850.53;;;12.57;62.88
49835;BME280;35729;52.090;13.162;2023-04-08T12:46:19;101860.16;;;12.58;61.91
49835;BME280;35729;52.090;13.162;2023-04-08T12:48:48;101854.84;;;12.61;62.37
49835;BME280;35729;52.090;13.162;2023-04-08T12:51:19;101854.81;;;12.62;61.85
49835;BME280;35729;52.090;13.162;2023-04-08T12:53:47;101853.97;;;12.62;61.55
49835;BME280;35729;52.090;13.162;2023-04-08T12:56:16;101850.41;;;12.66;61.51
49835;BME280;35729;52.090;13.162;2023-04-08T12:58:45;101850.31;;;12.72;59.78